createdAt,value
2023-04-24T00:00:21.888Z,25.40
2023-04-24T00:02:52.050Z,23.83
2023-04-24T00:05:21.374Z,24.17
2023-04-24T00:07:50.349Z,23.30
2023-04-24T00:10:19.280Z,24.00
2023-04-24T00:13:08.756Z,22.77
2023-04-24T00:15:40.355Z,24.13
2023-04-24T00:18:27.923Z,29.80
2023-04-24T00:20:57.015Z,24.53
2023-04-24T00:23:26.161Z,24.07
2023-04-24T00:25:55.248Z,24.30
2023-04-24T00:28:25.752Z,27.27
2023-04-24T00:30:54.866Z,29.27
2023-04-24T00:33:24.055Z,32.30
2023-04-24T00:35:53.076Z,28.80
2023-04-24T00:38:23.340Z,29.07
2023-04-24T00:40:52.450Z,24.13
2023-04-24T00:43:21.451Z,26.23
2023-04-24T00:45:52.026Z,29.27
2023-04-24T00:48:22.333Z,27.63
2023-04-24T00:50:51.677Z,25.83
2023-04-24T00:53:20.741Z,27.40
2023-04-24T00:55:49.892Z,25.47
2023-04-24T00:58:19.026Z,30.13
2023-04-24T01:00:48.485Z,32.53
2023-04-24T01:03:20.197Z,30.50
2023-04-24T01:05:50.109Z,25.93
2023-04-24T01:08:19.459Z,25.50
2023-04-24T01:10:50.343Z,24.87
2023-04-24T01:13:22.099Z,26.87
2023-04-24T01:15:51.511Z,26.83
2023-04-24T01:18:23.129Z,28.70
2023-04-24T01:20:55.598Z,37.67
2023-04-24T01:23:28.006Z,31.37
2023-04-24T01:25:57.515Z,38.77
2023-04-24T01:28:28.677Z,34.47
2023-04-24T01:30:58.266Z,33.77
2023-04-24T01:33:27.804Z,26.83
2023-04-24T01:35:57.186Z,22.47
2023-04-24T01:38:27.912Z,26.33
2023-04-24T01:40:56.968Z,25.60
2023-04-24T01:43:27.974Z,29.40
2023-04-24T01:46:00.589Z,27.97
2023-04-24T01:48:31.483Z,32.37
2023-04-24T01:51:00.929Z,34.27
2023-04-24T01:53:31.378Z,33.40
2023-04-24T01:56:00.596Z,27.83
2023-04-24T01:58:30.167Z,30.27
2023-04-24T02:01:00.061Z,24.00
2023-04-24T02:03:29.441Z,26.73
2023-04-24T02:06:00.846Z,24.67
2023-04-24T02:08:31.250Z,24.70
2023-04-24T02:11:00.248Z,25.27
2023-04-24T02:13:29.228Z,26.10
2023-04-24T02:15:58.248Z,30.13
2023-04-24T02:18:27.340Z,31.40
2023-04-24T02:20:56.312Z,38.70
2023-04-24T02:23:25.315Z,38.37
2023-04-24T02:25:55.962Z,32.30
2023-04-24T02:28:43.680Z,35.10
2023-04-24T02:31:13.661Z,36.73
2023-04-24T02:33:43.484Z,29.47
2023-04-24T02:36:12.558Z,33.17
2023-04-24T02:38:41.522Z,29.93
2023-04-24T02:41:11.980Z,31.67
2023-04-24T02:43:40.943Z,35.77
2023-04-24T02:46:10.113Z,37.73
2023-04-24T02:48:39.276Z,40.47
2023-04-24T02:51:09.329Z,42.67
2023-04-24T02:53:38.943Z,39.93
2023-04-24T02:56:08.076Z,37.53
2023-04-24T02:58:38.472Z,37.63
2023-04-24T03:01:07.687Z,45.57
2023-04-24T03:03:36.930Z,38.77
2023-04-24T03:06:06.932Z,38.40
2023-04-24T03:08:36.001Z,43.83
2023-04-24T03:11:05.046Z,44.57
2023-04-24T03:13:33.985Z,46.63
2023-04-24T03:16:04.404Z,44.97
2023-04-24T03:18:33.527Z,38.93
2023-04-24T03:21:04.710Z,34.23
2023-04-24T03:23:34.540Z,39.20
2023-04-24T03:26:03.667Z,66.40
2023-04-24T03:28:33.417Z,40.00
2023-04-24T03:31:07.443Z,36.93
2023-04-24T03:33:42.295Z,42.57
2023-04-24T03:36:12.911Z,36.43
2023-04-24T03:38:43.536Z,71.07
2023-04-24T03:41:38.539Z,96.73
2023-04-24T03:44:14.118Z,64.63
2023-04-24T03:46:45.283Z,56.80
2023-04-24T03:49:14.466Z,48.13
2023-04-24T03:51:46.463Z,66.00
2023-04-24T03:54:25.285Z,48.03
2023-04-24T03:56:55.739Z,37.03
2023-04-24T03:59:26.172Z,49.30
2023-04-24T04:02:10.279Z,38.97
2023-04-24T04:04:40.315Z,36.03
2023-04-24T04:07:09.848Z,34.57
2023-04-24T04:09:38.928Z,34.07
2023-04-24T04:12:07.987Z,28.93
2023-04-24T04:14:37.286Z,29.33
2023-04-24T04:17:06.248Z,27.87
2023-04-24T04:19:37.416Z,27.57
2023-04-24T04:22:06.642Z,29.00
2023-04-24T04:24:44.312Z,27.97
2023-04-24T04:27:14.292Z,28.03
2023-04-24T04:30:00.963Z,30.07
2023-04-24T04:32:30.483Z,31.93
2023-04-24T04:35:04.273Z,40.80
2023-04-24T04:37:35.931Z,41.03
2023-04-24T04:40:34.412Z,37.70
2023-04-24T04:43:07.462Z,34.47
2023-04-24T04:45:44.819Z,39.13
2023-04-24T04:48:41.995Z,31.13
2023-04-24T04:51:13.599Z,74.27
2023-04-24T04:53:42.643Z,45.17
2023-04-24T04:56:11.759Z,37.67
2023-04-24T04:58:45.407Z,30.30
2023-04-24T05:01:17.476Z,43.13
2023-04-24T05:03:49.623Z,60.00
2023-04-24T05:06:24.255Z,79.43
2023-04-24T05:08:58.476Z,69.40
2023-04-24T05:11:35.286Z,39.30
2023-04-24T05:14:05.324Z,43.10
2023-04-24T05:16:38.217Z,43.30
2023-04-24T05:19:08.677Z,49.50
2023-04-24T05:21:42.970Z,39.70
2023-04-24T05:24:30.816Z,35.40
2023-04-24T05:27:11.089Z,36.37
2023-04-24T05:29:43.758Z,55.87
2023-04-24T05:32:13.590Z,63.03
2023-04-24T05:34:42.659Z,47.53
2023-04-24T05:37:13.386Z,36.93
2023-04-24T05:39:44.250Z,36.93
2023-04-24T05:42:13.488Z,35.83
2023-04-24T05:44:42.439Z,45.90
2023-04-24T05:47:12.235Z,33.37
2023-04-24T05:49:41.492Z,45.07
2023-04-24T05:52:12.668Z,43.80
2023-04-24T05:54:42.973Z,37.07
2023-04-24T05:57:15.035Z,36.17
2023-04-24T05:59:56.547Z,62.97
2023-04-24T06:02:26.095Z,43.77
2023-04-24T06:04:57.205Z,39.80
2023-04-24T06:07:28.876Z,41.73
2023-04-24T06:09:58.344Z,53.23
2023-04-24T06:12:28.647Z,31.70
2023-04-24T06:15:02.885Z,36.17
2023-04-24T06:17:50.746Z,35.80
2023-04-24T06:20:21.091Z,37.97
2023-04-24T06:22:51.702Z,43.93
2023-04-24T06:25:20.989Z,41.10
2023-04-24T06:27:49.939Z,62.00
2023-04-24T06:30:18.991Z,46.97
2023-04-24T06:33:12.885Z,42.03
2023-04-24T06:35:57.702Z,42.10
2023-04-24T06:38:30.849Z,45.37
2023-04-24T06:41:00.050Z,50.50
2023-04-24T06:43:28.997Z,38.50
2023-04-24T06:45:58.160Z,34.73
2023-04-24T06:48:46.332Z,32.20
2023-04-24T06:51:15.342Z,42.60
2023-04-24T06:54:04.371Z,30.43
2023-04-24T06:56:35.412Z,29.77
2023-04-24T06:59:04.673Z,30.47
2023-04-24T07:01:33.916Z,25.63
2023-04-24T07:04:06.602Z,25.27
2023-04-24T07:06:37.071Z,25.93
2023-04-24T07:09:07.943Z,35.73
2023-04-24T07:11:37.873Z,56.70
2023-04-24T07:14:07.029Z,26.57
2023-04-24T07:16:36.174Z,34.80
2023-04-24T07:19:05.375Z,35.47
2023-04-24T07:21:34.426Z,26.47
2023-04-24T07:24:03.568Z,29.53
2023-04-24T07:26:34.297Z,26.90
2023-04-24T07:29:03.350Z,30.70
2023-04-24T07:31:32.946Z,34.20
2023-04-24T07:34:02.012Z,27.73
2023-04-24T07:36:31.359Z,26.33
2023-04-24T07:39:00.284Z,31.67
2023-04-24T07:41:30.126Z,23.63
2023-04-24T07:44:01.095Z,31.70
2023-04-24T07:46:31.296Z,27.30
2023-04-24T07:49:12.423Z,23.30
2023-04-24T07:51:43.234Z,27.47
2023-04-24T07:54:12.344Z,35.53
2023-04-24T07:56:42.797Z,29.63
2023-04-24T07:59:13.399Z,35.40
2023-04-24T08:01:42.488Z,35.77
2023-04-24T08:04:11.674Z,44.03
2023-04-24T08:06:41.106Z,38.23
2023-04-24T08:09:10.430Z,28.13
2023-04-24T08:11:39.482Z,24.90
2023-04-24T08:14:08.471Z,34.33
2023-04-24T08:16:39.303Z,26.30
2023-04-24T08:19:08.523Z,51.00
2023-04-24T08:21:38.352Z,41.97
2023-04-24T08:24:10.043Z,31.37
2023-04-24T08:26:39.223Z,34.03
2023-04-24T08:29:08.247Z,34.77
2023-04-24T08:31:38.712Z,32.03
2023-04-24T08:34:08.087Z,27.30
2023-04-24T08:36:46.474Z,29.83
2023-04-24T08:39:17.096Z,48.37
2023-04-24T08:41:46.874Z,28.27
2023-04-24T08:44:17.419Z,26.17
2023-04-24T08:46:50.443Z,26.43
2023-04-24T08:49:20.216Z,26.67
2023-04-24T08:51:49.372Z,32.43
2023-04-24T08:54:18.914Z,32.80
2023-04-24T08:57:07.109Z,34.43
2023-04-24T08:59:37.747Z,26.13
2023-04-24T09:02:09.411Z,27.87
2023-04-24T09:04:40.147Z,21.67
2023-04-24T09:07:10.895Z,50.67
2023-04-24T09:09:41.994Z,30.93
2023-04-24T09:12:29.495Z,25.20
2023-04-24T09:14:59.656Z,28.53
2023-04-24T09:17:30.823Z,24.80
2023-04-24T09:19:59.851Z,29.47
2023-04-24T09:22:32.912Z,34.10
2023-04-24T09:25:07.928Z,26.77
2023-04-24T09:27:37.634Z,24.60
2023-04-24T09:30:08.703Z,23.27
2023-04-24T09:32:39.563Z,26.23
2023-04-24T09:35:27.681Z,34.53
2023-04-24T09:38:00.120Z,38.13
2023-04-24T09:40:29.973Z,25.30
2023-04-24T09:43:02.507Z,26.83
2023-04-24T09:45:37.949Z,34.40
2023-04-24T09:48:14.462Z,21.87
2023-04-24T09:50:49.475Z,23.60
2023-04-24T09:53:26.202Z,24.50
2023-04-24T09:55:55.729Z,21.23
2023-04-24T09:58:29.053Z,24.17
2023-04-24T10:00:59.398Z,20.13
2023-04-24T10:03:32.954Z,19.10
2023-04-24T10:06:02.561Z,20.07
2023-04-24T10:08:37.272Z,21.03
2023-04-24T10:11:06.927Z,28.07
2023-04-24T10:13:45.036Z,24.73
2023-04-24T10:16:14.704Z,22.43
2023-04-24T10:18:45.750Z,16.03
2023-04-24T10:21:15.150Z,15.13
2023-04-24T10:23:46.994Z,14.77
2023-04-24T10:26:18.567Z,16.80
2023-04-24T10:28:48.469Z,17.23
2023-04-24T10:31:36.864Z,17.50
2023-04-24T10:34:08.342Z,16.10
2023-04-24T10:36:41.213Z,37.03
2023-04-24T10:39:13.702Z,14.27
2023-04-24T10:41:42.997Z,16.70
2023-04-24T10:44:13.535Z,13.80
2023-04-24T10:46:46.343Z,10.53
2023-04-24T10:49:17.040Z,13.80
2023-04-24T10:52:07.733Z,12.93
2023-04-24T10:54:45.181Z,16.37
2023-04-24T10:57:33.940Z,13.80
2023-04-24T11:00:28.901Z,11.60
2023-04-24T11:03:03.805Z,11.27
2023-04-24T11:06:11.459Z,16.60
2023-04-24T11:08:42.170Z,13.23
2023-04-24T11:11:13.674Z,10.73
2023-04-24T11:14:07.563Z,16.10
2023-04-24T11:16:47.703Z,24.23
2023-04-24T11:19:26.257Z,17.93
2023-04-24T11:22:03.235Z,13.80
2023-04-24T11:24:34.692Z,14.13
2023-04-24T11:27:16.714Z,17.97
2023-04-24T11:29:48.736Z,10.17
2023-04-24T11:32:29.300Z,23.77
2023-04-24T11:34:59.946Z,13.83
2023-04-24T11:37:35.790Z,13.80
2023-04-24T11:40:06.076Z,14.20
2023-04-24T11:42:39.671Z,16.60
2023-04-24T11:45:13.708Z,12.63
2023-04-24T11:47:43.761Z,15.43
2023-04-24T11:50:15.039Z,14.60
2023-04-24T11:52:47.766Z,12.93
2023-04-24T11:55:32.036Z,24.83
2023-04-24T11:58:02.823Z,13.50
2023-04-24T12:00:34.903Z,14.43
2023-04-24T12:03:09.609Z,15.50
2023-04-24T12:05:39.972Z,17.33
2023-04-24T12:08:35.215Z,14.10
2023-04-24T12:11:15.067Z,19.50
2023-04-24T12:13:45.141Z,11.43
2023-04-24T12:16:22.908Z,15.67
2023-04-24T12:18:54.559Z,14.80
2023-04-24T12:21:27.713Z,12.23
2023-04-24T12:23:59.709Z,17.03
2023-04-24T12:26:30.424Z,8.63
2023-04-24T12:29:05.840Z,11.10
2023-04-24T12:31:35.349Z,12.03
2023-04-24T12:34:04.481Z,11.10
2023-04-24T12:36:33.520Z,18.43
2023-04-24T12:39:04.638Z,14.60
2023-04-24T12:41:34.012Z,11.90
2023-04-24T12:44:03.056Z,11.17
2023-04-24T12:46:32.049Z,8.03
2023-04-24T12:49:01.156Z,10.00
2023-04-24T12:51:30.361Z,11.07
2023-04-24T12:53:59.807Z,28.93
2023-04-24T12:56:30.793Z,18.90
2023-04-24T12:58:59.812Z,16.23
2023-04-24T13:01:29.728Z,8.03
2023-04-24T13:03:59.055Z,16.10
2023-04-24T13:06:28.880Z,16.13
2023-04-24T13:08:59.116Z,5.27
2023-04-24T13:11:37.455Z,7.20
2023-04-24T13:14:06.874Z,6.17
2023-04-24T13:16:36.637Z,12.47
2023-04-24T13:19:05.686Z,13.87
2023-04-24T13:21:34.738Z,19.00
2023-04-24T13:24:05.914Z,16.23
2023-04-24T13:26:45.521Z,10.40
2023-04-24T13:29:14.800Z,13.07
2023-04-24T13:31:43.881Z,24.43
2023-04-24T13:34:13.062Z,11.00
2023-04-24T13:36:42.613Z,7.00
2023-04-24T13:39:16.717Z,7.70
2023-04-24T13:41:49.061Z,8.40
2023-04-24T13:44:19.239Z,6.83
2023-04-24T13:46:50.210Z,9.27
2023-04-24T13:49:19.789Z,13.03
2023-04-24T13:51:48.898Z,9.47
2023-04-24T13:54:17.980Z,33.30
2023-04-24T13:56:48.543Z,9.57
2023-04-24T13:59:19.080Z,12.03
2023-04-24T14:01:49.060Z,24.30
2023-04-24T14:04:20.020Z,16.33
2023-04-24T14:06:49.492Z,10.43
2023-04-24T14:09:18.640Z,7.07
2023-04-24T14:11:49.453Z,16.63
2023-04-24T14:14:18.667Z,15.87
2023-04-24T14:16:47.694Z,17.23
2023-04-24T14:19:16.817Z,13.07
2023-04-24T14:21:46.147Z,11.23
2023-04-24T14:24:16.339Z,14.60
2023-04-24T14:26:45.608Z,14.40
2023-04-24T14:29:16.397Z,12.17
2023-04-24T14:31:46.091Z,16.80
2023-04-24T14:34:17.722Z,21.30
2023-04-24T14:36:47.188Z,14.03
2023-04-24T14:39:18.280Z,15.40
2023-04-24T14:41:47.817Z,15.50
2023-04-24T14:44:18.436Z,19.27
2023-04-24T14:46:48.014Z,18.63
2023-04-24T14:49:17.262Z,11.00
2023-04-24T14:51:46.355Z,20.47
2023-04-24T14:54:16.259Z,11.33
2023-04-24T14:56:46.161Z,15.27
2023-04-24T14:59:15.379Z,16.17
2023-04-24T15:01:45.909Z,23.23
2023-04-24T15:04:15.331Z,15.50
2023-04-24T15:06:44.661Z,9.90
2023-04-24T15:09:14.312Z,10.67
2023-04-24T15:11:43.787Z,19.60
2023-04-24T15:14:13.004Z,7.53
2023-04-24T15:16:42.105Z,11.00
2023-04-24T15:19:13.263Z,17.47
2023-04-24T15:21:43.414Z,17.17
2023-04-24T15:24:12.931Z,14.00
2023-04-24T15:26:42.449Z,14.53
2023-04-24T15:29:11.577Z,18.70
2023-04-24T15:31:41.487Z,16.70
2023-04-24T15:34:12.221Z,17.70
2023-04-24T15:36:41.492Z,19.70
2023-04-24T15:39:11.596Z,11.13
2023-04-24T15:41:41.140Z,11.37
2023-04-24T15:44:10.383Z,19.77
2023-04-24T15:46:39.713Z,18.47
2023-04-24T15:49:09.085Z,19.13
2023-04-24T15:51:40.165Z,19.07
2023-04-24T15:54:10.136Z,14.47
2023-04-24T15:56:39.743Z,23.00
2023-04-24T15:59:08.891Z,28.70
2023-04-24T16:01:38.481Z,24.83
2023-04-24T16:04:07.739Z,22.97
2023-04-24T16:06:39.111Z,16.17
2023-04-24T16:09:09.340Z,20.17
2023-04-24T16:11:39.859Z,14.53
2023-04-24T16:14:10.773Z,24.43
2023-04-24T16:16:40.226Z,10.47
2023-04-24T16:19:09.822Z,18.57
2023-04-24T16:21:40.611Z,18.00
2023-04-24T16:24:09.852Z,20.80
2023-04-24T16:26:38.880Z,21.23
2023-04-24T16:29:08.139Z,20.50
2023-04-24T16:31:37.843Z,14.87
2023-04-24T16:34:07.468Z,21.97
2023-04-24T16:36:37.238Z,20.93
2023-04-24T16:39:08.564Z,36.83
2023-04-24T16:41:37.889Z,33.50
2023-04-24T16:44:07.097Z,33.60
2023-04-24T16:46:36.546Z,24.53
2023-04-24T16:49:05.759Z,40.50
2023-04-24T16:51:35.196Z,25.70
2023-04-24T16:54:04.363Z,33.50
2023-04-24T16:56:34.910Z,40.37
2023-04-24T16:59:22.356Z,25.60
2023-04-24T17:01:51.601Z,24.57
2023-04-24T17:04:20.899Z,27.43
2023-04-24T17:06:49.965Z,29.57
2023-04-24T17:09:19.341Z,26.63
2023-04-24T17:11:50.080Z,27.73
2023-04-24T17:14:19.419Z,68.33
2023-04-24T17:16:48.544Z,49.67
2023-04-24T17:19:17.661Z,60.03
2023-04-24T17:21:47.122Z,48.67
2023-04-24T17:24:16.433Z,57.93
2023-04-24T17:26:45.915Z,50.00
2023-04-24T17:29:17.534Z,28.97
2023-04-24T17:31:50.058Z,24.23
2023-04-24T17:34:22.921Z,65.57
2023-04-24T17:37:10.862Z,98.43
2023-04-24T17:39:40.328Z,64.20
2023-04-24T17:42:09.526Z,48.67
2023-04-24T17:44:40.121Z,57.47
2023-04-24T17:47:10.307Z,68.93
2023-04-24T17:49:40.085Z,68.20
2023-04-24T17:52:09.650Z,66.67
2023-04-24T17:54:38.866Z,58.47
2023-04-24T17:57:07.968Z,35.37
2023-04-24T17:59:39.002Z,50.33
2023-04-24T18:02:08.797Z,66.33
2023-04-24T18:04:39.399Z,40.90
2023-04-24T18:07:08.760Z,39.23
2023-04-24T18:09:37.742Z,24.03
2023-04-24T18:12:07.368Z,21.97
2023-04-24T18:14:36.534Z,34.07
2023-04-24T18:17:07.930Z,32.80
2023-04-24T18:19:37.221Z,32.37
2023-04-24T18:22:06.647Z,55.93
2023-04-24T18:24:35.721Z,60.87
2023-04-24T18:27:05.683Z,34.67
2023-04-24T18:29:34.834Z,35.97
2023-04-24T18:32:05.094Z,30.13
2023-04-24T18:34:35.777Z,37.70
2023-04-24T18:37:04.969Z,39.57
2023-04-24T18:39:34.268Z,54.03
2023-04-24T18:42:03.762Z,68.70
2023-04-24T18:44:32.953Z,41.33
2023-04-24T18:47:02.082Z,59.47
2023-04-24T18:49:31.228Z,54.80
2023-04-24T18:52:02.045Z,57.37
2023-04-24T18:54:31.410Z,44.27
2023-04-24T18:57:01.897Z,121.47
2023-04-24T18:59:31.079Z,83.33
2023-04-24T19:02:00.809Z,66.40
2023-04-24T19:04:31.281Z,67.13
2023-04-24T19:07:01.957Z,62.03
2023-04-24T19:09:31.287Z,53.97
2023-04-24T19:12:01.641Z,45.53
2023-04-24T19:14:35.498Z,53.40
2023-04-24T19:17:11.731Z,45.80
2023-04-24T19:19:41.641Z,55.77
2023-04-24T19:22:12.618Z,88.07
2023-04-24T19:24:42.273Z,89.93
2023-04-24T19:27:11.476Z,38.57
2023-04-24T19:29:42.404Z,37.73
2023-04-24T19:32:11.811Z,86.97
2023-04-24T19:34:40.979Z,91.53
2023-04-24T19:37:12.002Z,123.00
2023-04-24T19:39:41.161Z,67.53
2023-04-24T19:42:10.321Z,83.50
2023-04-24T19:44:39.479Z,116.20
2023-04-24T19:47:09.012Z,169.33
2023-04-24T19:49:38.361Z,94.70
2023-04-24T19:52:07.690Z,60.93
2023-04-24T19:54:38.932Z,81.47
2023-04-24T19:57:08.218Z,49.00
2023-04-24T19:59:37.409Z,44.47
2023-04-24T20:02:06.664Z,35.97
2023-04-24T20:04:35.961Z,41.23
2023-04-24T20:07:05.720Z,42.47
2023-04-24T20:09:37.835Z,29.43
2023-04-24T20:12:10.311Z,34.07
2023-04-24T20:14:41.311Z,36.87
2023-04-24T20:17:10.449Z,33.33
2023-04-24T20:19:41.197Z,80.83
2023-04-24T20:22:13.076Z,67.50
2023-04-24T20:24:44.305Z,62.63
2023-04-24T20:27:17.643Z,44.00
2023-04-24T20:29:46.788Z,64.17
2023-04-24T20:32:18.542Z,45.70
2023-04-24T20:34:47.937Z,41.83
2023-04-24T20:37:17.013Z,25.57
2023-04-24T20:39:46.659Z,31.57
2023-04-24T20:42:18.914Z,38.23
2023-04-24T20:44:48.902Z,33.90
2023-04-24T20:47:18.059Z,71.10
2023-04-24T20:49:47.231Z,62.60
2023-04-24T20:52:16.243Z,49.17
2023-04-24T20:54:46.952Z,44.67
2023-04-24T20:57:17.735Z,40.73
2023-04-24T20:59:46.978Z,51.60
2023-04-24T21:02:16.595Z,61.73
2023-04-24T21:04:46.536Z,94.13
2023-04-24T21:07:16.050Z,57.67
2023-04-24T21:09:45.166Z,58.67
2023-04-24T21:12:14.196Z,54.83
2023-04-24T21:14:44.765Z,44.43
2023-04-24T21:17:14.236Z,37.07
2023-04-24T21:19:43.244Z,39.77
2023-04-24T21:22:12.279Z,45.37
2023-04-24T21:24:41.536Z,54.93
2023-04-24T21:27:10.539Z,52.20
2023-04-24T21:29:39.493Z,43.33
2023-04-24T21:32:10.324Z,109.83
2023-04-24T21:34:39.428Z,46.80
2023-04-24T21:37:08.716Z,26.07
2023-04-24T21:39:37.728Z,26.90
2023-04-24T21:42:06.938Z,31.57
2023-04-24T21:44:35.942Z,46.70
2023-04-24T21:47:05.023Z,36.60
2023-04-24T21:49:35.542Z,30.73
2023-04-24T21:52:04.781Z,31.50
2023-04-24T21:54:33.751Z,28.90
2023-04-24T21:57:03.176Z,30.83
2023-04-24T21:59:32.441Z,21.63
2023-04-24T22:02:01.564Z,15.83
2023-04-24T22:04:30.763Z,27.70
2023-04-24T22:07:01.681Z,21.03
2023-04-24T22:09:30.941Z,21.13
2023-04-24T22:12:00.213Z,38.33
2023-04-24T22:14:29.308Z,21.23
2023-04-24T22:16:58.710Z,27.03
2023-04-24T22:19:28.592Z,27.83
2023-04-24T22:21:58.222Z,22.97
2023-04-24T22:24:29.643Z,25.33
2023-04-24T22:26:58.912Z,24.20
2023-04-24T22:29:28.303Z,18.77
2023-04-24T22:31:58.002Z,26.90
2023-04-24T22:34:27.251Z,18.00
2023-04-24T22:36:57.511Z,23.63
2023-04-24T22:39:28.126Z,22.63
2023-04-24T22:41:57.871Z,23.83
2023-04-24T22:44:27.123Z,21.83
2023-04-24T22:46:56.256Z,20.63
2023-04-24T22:49:27.602Z,19.17
2023-04-24T22:51:57.908Z,19.03
2023-04-24T22:54:29.993Z,19.87
2023-04-24T22:56:59.655Z,16.70
2023-04-24T22:59:28.835Z,19.73
2023-04-24T23:01:59.520Z,17.00
2023-04-24T23:04:29.507Z,16.20
2023-04-24T23:06:58.777Z,16.00
2023-04-24T23:09:29.467Z,18.97
2023-04-24T23:11:58.908Z,19.33
2023-04-24T23:14:28.611Z,21.40
2023-04-24T23:16:57.797Z,19.07
2023-04-24T23:19:26.967Z,18.30
2023-04-24T23:21:56.255Z,17.73
2023-04-24T23:24:25.429Z,17.60
2023-04-24T23:26:55.812Z,22.50
2023-04-24T23:29:26.738Z,26.27
2023-04-24T23:31:55.917Z,32.10
2023-04-24T23:34:24.941Z,26.33
2023-04-24T23:36:54.510Z,33.10
2023-04-24T23:39:23.573Z,27.57
2023-04-24T23:41:53.754Z,33.07
2023-04-24T23:44:24.271Z,29.13
2023-04-24T23:46:53.300Z,27.00
2023-04-24T23:49:22.219Z,24.07
2023-04-24T23:51:51.765Z,24.60
2023-04-24T23:54:20.770Z,31.73
2023-04-24T23:56:50.074Z,21.40
2023-04-24T23:59:20.869Z,22.80
